Portada
METAR-TAF:

METAR-TAF

Aeroports :

Jammu, Índia

latitud: 32-41-21N, longitud: 74-50-15E, altitud: 314 m

METAR: manca

Hora: 09:15 (03:45 UTC)

Pronòstic

L'informe es va fer fa 18 hores i 15 minuts, a les 09:30 UTC
Pronòstic vàlid del 24 a les 18 UTC al 25 a les 12 UTC
Vent 5 kt del Oest/Nord-Oest
Visibilitat: 6000 m
Núvols disperses a una alçada de 2500 ft
Núvols disperses a una alçada de 10000 ft
Temporalment
entre 34 i 01 UTC
Visibilitat: 6000 m
Núvols disperses a una alçada de 2500 ft
Escasses núvols a una alçada de 3000 ft, Cumulonimbus.
Núvols disperses a una alçada de 10000 ft
tempesta

TAF: VIJU 240930Z 2418/2512 29005KT 6000 SCT025 SCT100 TEMPO 34010KT 6000 TS SCT025 FEW030CB SCT100

Observacions i pronòstics meteorològics de més de 4000 aeroports (METAR i TAF).

Les estacions disponibles són els punts grocs i vermells al mapa.

Posi el ratolí al punt desitjat per veure el nom de l'estació.

Feu clic per veure les observacions i els pronòstics meteorològics.

Per canviar el mapa: feu clic els botons verds amb una creu de color negre per apropar; al botó verd amb un guió per allunyar la imatge; o en les fletxes verdes per a mapes adjacents.


METAR-TAF: